Impacts TAF Board
For situational awareness. Not to be used for flight planning purposes.
IDs:

KLAS - Las Vegas/McCarran I, NV, US

Issued at 1739 UTC 12 Dec 2018
Updated at 1918 UTC 12 Dec 2018
Potential Impact None Slight Moderate High
Time<<13/08Z 13/09Z 13/10Z 13/11Z 13/12Z 13/13Z 13/14Z 13/15Z 13/16Z 13/17Z 13/18Z 13/19Z 13/20Z>>
Type PRVL PRVL PRVL PRVL PRVL PRVL PRVL PRVL PRVL PRVL PRVL PRVL PRVL
VIS >6 >6 >6 >6 >6 >6 >6 >6 >6 >6 >6 >6 >6
CIG -- -- -- -- -- -- -- -- -- -- -- -- --
Cover FEW FEW FEW FEW FEW FEW FEW FEW FEW FEW FEW FEW FEW
FltCat VFR VFR VFR VFR VFR VFR VFR VFR VFR VFR VFR VFR VFR
WX -- -- -- -- -- -- -- -- -- -- -- -- --
WDir 10 VRB VRB VRB VRB VRB VRB VRB VRB VRB VRB VRB VRB
WSpd 7 6 6 6 6 6 6 6 6 6 6 6 6
WGst -- -- -- -- -- -- -- -- -- -- -- -- --
Raw TAF
KLAS 121739Z 1218/1324 VRB06KT P6SM SCT250
  FM122000 02011G18KT P6SM SCT250
  FM130300 01007KT P6SM FEW250
  FM130900 VRB06KT P6SM FEW250


METAR Board
Radar Display
Forecast Discussion
For situational awareness. Not to be used for flight planning purposes.